sensor_id;sensor_type;location;lat;lon;timestamp;temperature;humidity
74811;DHT22;63340;48.404;-4.506;2022-10-04T10:23:26;18.62;73.98
74811;DHT22;63340;48.404;-4.506;2022-10-04T10:50:02;18.99;73.96
74811;DHT22;63340;48.404;-4.506;2022-10-04T11:05:26;19.17;72.08
74811;DHT22;63340;48.404;-4.506;2022-10-04T11:16:30;19.33;72.03
74811;DHT22;63340;48.404;-4.506;2022-10-04T11:22:48;19.28;71.24
74811;DHT22;63340;48.404;-4.506;2022-10-04T11:28:39;19.34;71.59
74811;DHT22;63340;48.404;-4.506;2022-10-04T11:41:33;20.02;68.47
74811;DHT22;63340;48.404;-4.506;2022-10-04T14:03:58;19.94;66.30
74811;DHT22;63340;48.404;-4.506;2022-10-04T14:12:35;20.18;66.81
74811;DHT22;63340;48.404;-4.506;2022-10-04T14:30:09;19.91;67.76
74811;DHT22;63340;48.404;-4.506;2022-10-04T14:41:32;19.95;68.01
74811;DHT22;63340;48.404;-4.506;2022-10-04T15:01:21;19.79;69.74
74811;DHT22;63340;48.404;-4.506;2022-10-04T15:06:49;19.81;69.64
74811;DHT22;63340;48.404;-4.506;2022-10-04T15:09:28;19.79;69.69
74811;DHT22;63340;48.404;-4.506;2022-10-04T15:12:15;19.74;69.74
74811;DHT22;63340;48.404;-4.506;2022-10-04T15:15:26;19.71;69.73
74811;DHT22;63340;48.404;-4.506;2022-10-04T15:29:57;19.68;69.54
74811;DHT22;63340;48.404;-4.506;2022-10-04T15:35:53;19.58;70.00
74811;DHT22;63340;48.404;-4.506;2022-10-04T15:38:29;19.65;69.98
74811;DHT22;63340;48.404;-4.506;2022-10-04T15:41:23;19.61;70.43
74811;DHT22;63340;48.404;-4.506;2022-10-04T15:49:56;19.57;70.83
74811;DHT22;63340;48.404;-4.506;2022-10-04T15:55:30;19.55;70.91
74811;DHT22;63340;48.404;-4.506;2022-10-04T16:32:12;19.26;71.41
74811;DHT22;63340;48.404;-4.506;2022-10-04T16:40:00;19.19;71.87
74811;DHT22;63340;48.404;-4.506;2022-10-04T16:48:22;19.19;71.99
74811;DHT22;63340;48.404;-4.506;2022-10-04T17:02:14;18.85;72.96
74811;DHT22;63340;48.404;-4.506;2022-10-04T17:16:03;18.72;73.61
74811;DHT22;63340;48.404;-4.506;2022-10-04T17:18:50;18.76;73.82
74811;DHT22;63340;48.404;-4.506;2022-10-04T17:24:19;18.73;73.84
74811;DHT22;63340;48.404;-4.506;2022-10-04T17:32:30;18.68;74.25
74811;DHT22;63340;48.404;-4.506;2022-10-04T17:46:26;18.65;74.18
74811;DHT22;63340;48.404;-4.506;2022-10-04T17:49:01;18.68;74.10
74811;DHT22;63340;48.404;-4.506;2022-10-04T17:51:53;18.64;74.16
74811;DHT22;63340;48.404;-4.506;2022-10-04T17:54:49;18.58;74.27
74811;DHT22;63340;48.404;-4.506;2022-10-04T17:57:58;18.65;74.04
74811;DHT22;63340;48.404;-4.506;2022-10-04T18:00:26;18.67;73.95
74811;DHT22;63340;48.404;-4.506;2022-10-04T18:03:19;18.71;74.02
74811;DHT22;63340;48.404;-4.506;2022-10-04T18:05:55;18.65;74.20
74811;DHT22;63340;48.404;-4.506;2022-10-04T18:11:31;18.59;74.79
74811;DHT22;63340;48.404;-4.506;2022-10-04T18:14:04;18.62;74.73
74811;DHT22;63340;48.404;-4.506;2022-10-04T18:19:29;18.55;75.25
74811;DHT22;63340;48.404;-4.506;2022-10-04T18:22:23;18.55;75.08
74811;DHT22;63340;48.404;-4.506;2022-10-04T18:25:15;18.55;74.92
74811;DHT22;63340;48.404;-4.506;2022-10-04T18:28:02;18.51;75.42
74811;DHT22;63340;48.404;-4.506;2022-10-04T18:30:31;18.57;74.85
74811;DHT22;63340;48.404;-4.506;2022-10-04T18:32:58;18.59;74.79
74811;DHT22;63340;48.404;-4.506;2022-10-04T18:35:32;18.57;74.91
74811;DHT22;63340;48.404;-4.506;2022-10-04T18:40:34;18.61;74.86
74811;DHT22;63340;48.404;-4.506;2022-10-04T18:43:23;18.65;74.65
74811;DHT22;63340;48.404;-4.506;2022-10-04T18:46:02;18.61;74.80
74811;DHT22;63340;48.404;-4.506;2022-10-04T18:48:39;18.62;74.72
74811;DHT22;63340;48.404;-4.506;2022-10-04T18:51:34;18.65;74.74
74811;DHT22;63340;48.404;-4.506;2022-10-04T19:02:52;18.62;75.18
74811;DHT22;63340;48.404;-4.506;2022-10-04T19:05:44;18.67;75.10
74811;DHT22;63340;48.404;-4.506;2022-10-04T19:11:04;18.65;75.24
74811;DHT22;63340;48.404;-4.506;2022-10-04T19:22:02;18.64;75.29
74811;DHT22;63340;48.404;-4.506;2022-10-04T19:27:37;18.64;75.33
74811;DHT22;63340;48.404;-4.506;2022-10-04T19:30:36;18.69;75.11
74811;DHT22;63340;48.404;-4.506;2022-10-04T19:38:54;18.67;75.32
74811;DHT22;63340;48.404;-4.506;2022-10-04T19:44:43;18.58;75.71
74811;DHT22;63340;48.404;-4.506;2022-10-04T19:47:37;18.59;75.61
74811;DHT22;63340;48.404;-4.506;2022-10-04T19:50:33;18.58;75.80
74811;DHT22;63340;48.404;-4.506;2022-10-04T19:56:29;18.55;75.76
74811;DHT22;63340;48.404;-4.506;2022-10-04T19:59:12;18.54;75.74
74811;DHT22;63340;48.404;-4.506;2022-10-04T20:01:43;18.54;75.70
74811;DHT22;63340;48.404;-4.506;2022-10-04T20:04:13;18.54;75.66
74811;DHT22;63340;48.404;-4.506;2022-10-04T20:07:11;18.51;75.59
74811;DHT22;63340;48.404;-4.506;2022-10-04T20:12:38;18.55;75.61
74811;DHT22;63340;48.404;-4.506;2022-10-04T20:17:37;18.59;75.52
74811;DHT22;63340;48.404;-4.506;2022-10-04T20:20:03;18.58;75.48
74811;DHT22;63340;48.404;-4.506;2022-10-04T20:22:55;18.54;75.95
74811;DHT22;63340;48.404;-4.506;2022-10-04T20:31:00;18.54;76.20
74811;DHT22;63340;48.404;-4.506;2022-10-04T20:36:47;18.47;77.08
74811;DHT22;63340;48.404;-4.506;2022-10-04T20:42:37;18.34;77.82
74811;DHT22;63340;48.404;-4.506;2022-10-04T20:45:18;18.27;78.11
74811;DHT22;63340;48.404;-4.506;2022-10-04T20:47:47;18.27;78.21
74811;DHT22;63340;48.404;-4.506;2022-10-04T20:50:18;18.33;77.89
74811;DHT22;63340;48.404;-4.506;2022-10-04T20:52:50;18.36;77.98
74811;DHT22;63340;48.404;-4.506;2022-10-04T20:57:54;18.36;78.15
74811;DHT22;63340;48.404;-4.506;2022-10-04T21:00:24;18.36;77.68
74811;DHT22;63340;48.404;-4.506;2022-10-04T21:03:12;18.43;77.94
74811;DHT22;63340;48.404;-4.506;2022-10-04T21:05:38;18.31;78.31
74811;DHT22;63340;48.404;-4.506;2022-10-04T21:08:24;18.30;78.24
74811;DHT22;63340;48.404;-4.506;2022-10-04T21:13:53;18.36;78.14
74811;DHT22;63340;48.404;-4.506;2022-10-04T21:16:37;18.34;78.22
74811;DHT22;63340;48.404;-4.506;2022-10-04T21:22:07;18.37;77.81
74811;DHT22;63340;48.404;-4.506;2022-10-04T21:27:47;18.31;77.96
74811;DHT22;63340;48.404;-4.506;2022-10-04T21:30:14;18.34;77.75
74811;DHT22;63340;48.404;-4.506;2022-10-04T21:32:40;18.36;77.65
74811;DHT22;63340;48.404;-4.506;2022-10-04T21:35:06;18.36;77.49
74811;DHT22;63340;48.404;-4.506;2022-10-04T21:37:32;18.30;77.48
74811;DHT22;63340;48.404;-4.506;2022-10-04T21:39:58;18.31;77.25
74811;DHT22;63340;48.404;-4.506;2022-10-04T21:42:24;18.33;77.08
74811;DHT22;63340;48.404;-4.506;2022-10-04T21:44:50;18.31;77.07
74811;DHT22;63340;48.404;-4.506;2022-10-04T21:47:16;18.33;77.07
74811;DHT22;63340;48.404;-4.506;2022-10-04T21:49:42;18.30;77.04
74811;DHT22;63340;48.404;-4.506;2022-10-04T21:52:07;18.33;76.79
74811;DHT22;63340;48.404;-4.506;2022-10-04T21:54:33;18.36;76.68
74811;DHT22;63340;48.404;-4.506;2022-10-04T21:56:59;18.30;76.47
74811;DHT22;63340;48.404;-4.506;2022-10-04T21:59:25;18.31;76.39
74811;DHT22;63340;48.404;-4.506;2022-10-04T22:01:50;18.37;76.27
74811;DHT22;63340;48.404;-4.506;2022-10-04T22:04:16;18.30;76.07
74811;DHT22;63340;48.404;-4.506;2022-10-04T22:06:41;18.37;75.99
74811;DHT22;63340;48.404;-4.506;2022-10-04T22:09:07;18.37;75.75
74811;DHT22;63340;48.404;-4.506;2022-10-04T22:11:33;18.41;75.62
74811;DHT22;63340;48.404;-4.506;2022-10-04T22:13:58;18.37;75.41
74811;DHT22;63340;48.404;-4.506;2022-10-04T22:16:24;18.43;75.38
74811;DHT22;63340;48.404;-4.506;2022-10-04T22:18:49;18.40;75.11
74811;DHT22;63340;48.404;-4.506;2022-10-04T22:21:15;18.38;75.07
74811;DHT22;63340;48.404;-4.506;2022-10-04T22:23:41;18.40;75.08
74811;DHT22;63340;48.404;-4.506;2022-10-04T22:26:16;18.33;74.84
74811;DHT22;63340;48.404;-4.506;2022-10-04T22:28:45;18.40;74.87
74811;DHT22;63340;48.404;-4.506;2022-10-04T22:31:13;18.34;74.65
74811;DHT22;63340;48.404;-4.506;2022-10-04T22:33:41;18.31;74.69
74811;DHT22;63340;48.404;-4.506;2022-10-04T22:36:19;18.30;74.34
74811;DHT22;63340;48.404;-4.506;2022-10-04T22:41:17;18.33;72.54
74811;DHT22;63340;48.404;-4.506;2022-10-04T22:43:48;18.34;71.83
74811;DHT22;63340;48.404;-4.506;2022-10-04T22:46:16;18.44;72.08
74811;DHT22;63340;48.404;-4.506;2022-10-04T22:48:46;18.43;72.22
74811;DHT22;63340;48.404;-4.506;2022-10-04T22:51:12;18.48;72.53
74811;DHT22;63340;48.404;-4.506;2022-10-04T22:53:47;18.43;72.11
74811;DHT22;63340;48.404;-4.506;2022-10-04T22:56:13;18.31;72.11
74811;DHT22;63340;48.404;-4.506;2022-10-04T22:58:40;18.37;72.37
74811;DHT22;63340;48.404;-4.506;2022-10-04T23:01:16;18.38;71.62
74811;DHT22;63340;48.404;-4.506;2022-10-04T23:03:48;18.37;71.59
74811;DHT22;63340;48.404;-4.506;2022-10-04T23:06:14;18.36;71.22
74811;DHT22;63340;48.404;-4.506;2022-10-04T23:08:40;18.38;71.17
74811;DHT22;63340;48.404;-4.506;2022-10-04T23:11:06;18.40;70.90
74811;DHT22;63340;48.404;-4.506;2022-10-04T23:13:32;18.38;70.40
74811;DHT22;63340;48.404;-4.506;2022-10-04T23:16:09;18.43;70.70
74811;DHT22;63340;48.404;-4.506;2022-10-04T23:18:35;18.40;70.25
74811;DHT22;63340;48.404;-4.506;2022-10-04T23:21:01;18.40;70.27
74811;DHT22;63340;48.404;-4.506;2022-10-04T23:23:29;18.43;70.05
74811;DHT22;63340;48.404;-4.506;2022-10-04T23:25:55;18.47;70.04
74811;DHT22;63340;48.404;-4.506;2022-10-04T23:28:21;18.44;69.48
74811;DHT22;63340;48.404;-4.506;2022-10-04T23:31:06;18.45;69.66
74811;DHT22;63340;48.404;-4.506;2022-10-04T23:33:35;18.47;69.70
74811;DHT22;63340;48.404;-4.506;2022-10-04T23:36:00;18.44;69.87
74811;DHT22;63340;48.404;-4.506;2022-10-04T23:38:27;18.45;69.50
74811;DHT22;63340;48.404;-4.506;2022-10-04T23:40:53;18.44;69.61
74811;DHT22;63340;48.404;-4.506;2022-10-04T23:43:23;18.44;69.72
74811;DHT22;63340;48.404;-4.506;2022-10-04T23:45:54;18.52;69.67
74811;DHT22;63340;48.404;-4.506;2022-10-04T23:48:26;18.47;69.60
74811;DHT22;63340;48.404;-4.506;2022-10-04T23:50:56;18.47;69.54
74811;DHT22;63340;48.404;-4.506;2022-10-04T23:53:24;18.45;69.45
74811;DHT22;63340;48.404;-4.506;2022-10-04T23:55:53;18.44;69.53
74811;DHT22;63340;48.404;-4.506;2022-10-04T23:58:24;18.45;69.69
